createdAt,value
2022-11-29T00:00:30.685Z,99.85
2022-11-29T00:02:57.633Z,100.00
2022-11-29T00:05:24.238Z,100.00
2022-11-29T00:07:52.189Z,100.00
2022-11-29T00:10:19.076Z,100.00
2022-11-29T00:12:46.916Z,100.00
2022-11-29T00:15:13.450Z,100.00
2022-11-29T00:17:40.019Z,100.00
2022-11-29T00:20:07.838Z,100.00
2022-11-29T00:22:34.429Z,100.00
2022-11-29T00:25:02.837Z,99.51
2022-11-29T00:27:29.586Z,99.19
2022-11-29T00:29:56.122Z,99.71
2022-11-29T00:32:22.783Z,99.90
2022-11-29T00:34:49.345Z,100.00
2022-11-29T00:37:15.934Z,99.97
2022-11-29T00:39:42.567Z,99.72
2022-11-29T00:42:10.496Z,100.00
2022-11-29T00:44:36.987Z,100.00
2022-11-29T00:47:03.624Z,100.00
2022-11-29T00:49:30.118Z,100.00
2022-11-29T00:51:56.710Z,100.00
2022-11-29T00:54:23.260Z,100.00
2022-11-29T00:56:49.834Z,100.00
2022-11-29T00:59:17.697Z,100.00
2022-11-29T01:01:44.529Z,100.00
2022-11-29T01:04:11.209Z,100.00
2022-11-29T01:06:37.818Z,100.00
2022-11-29T01:09:04.664Z,100.00
2022-11-29T01:11:31.241Z,100.00
2022-11-29T01:14:00.350Z,100.00
2022-11-29T01:16:29.689Z,100.00
2022-11-29T01:18:56.479Z,100.00
2022-11-29T01:21:24.541Z,100.00
2022-11-29T01:23:53.233Z,100.00
2022-11-29T01:26:22.210Z,100.00
2022-11-29T01:28:52.280Z,100.00
2022-11-29T01:31:21.277Z,100.00
2022-11-29T01:33:53.241Z,100.00
2022-11-29T01:36:19.809Z,100.00
2022-11-29T01:38:46.615Z,100.00
2022-11-29T01:41:16.382Z,100.00
2022-11-29T01:43:59.590Z,100.00
2022-11-29T01:46:27.618Z,100.00
2022-11-29T01:49:00.165Z,100.00
2022-11-29T01:51:28.202Z,100.00
2022-11-29T01:53:55.208Z,100.00
2022-11-29T01:56:23.421Z,100.00
2022-11-29T01:58:50.172Z,100.00
2022-11-29T02:01:16.898Z,100.00
2022-11-29T02:03:43.541Z,100.00
2022-11-29T02:06:11.559Z,100.00
2022-11-29T02:08:40.607Z,100.00
2022-11-29T02:11:37.701Z,100.00
2022-11-29T02:14:18.417Z,100.00
2022-11-29T02:16:56.881Z,100.00
2022-11-29T02:19:47.176Z,100.00
2022-11-29T02:22:20.679Z,100.00
2022-11-29T02:25:06.904Z,100.00
2022-11-29T02:28:07.520Z,99.67
2022-11-29T02:31:04.257Z,99.78
2022-11-29T02:33:53.456Z,100.00
2022-11-29T02:36:45.257Z,100.00
2022-11-29T02:39:39.249Z,100.00
2022-11-29T02:42:26.618Z,100.00
2022-11-29T02:45:07.926Z,100.00
2022-11-29T02:47:51.383Z,100.00
2022-11-29T02:50:29.806Z,100.00
2022-11-29T02:53:05.446Z,100.00
2022-11-29T02:55:37.268Z,100.00
2022-11-29T02:58:13.675Z,100.00
2022-11-29T03:00:50.006Z,100.00
2022-11-29T03:03:23.361Z,100.00
2022-11-29T03:05:57.415Z,100.00
2022-11-29T03:08:34.200Z,100.00
2022-11-29T03:11:09.265Z,100.00
2022-11-29T03:13:48.059Z,100.00
2022-11-29T03:16:28.342Z,100.00
2022-11-29T03:19:05.371Z,100.00
2022-11-29T03:21:41.038Z,100.00
2022-11-29T03:24:15.687Z,100.00
2022-11-29T03:26:45.455Z,100.00
2022-11-29T03:29:19.031Z,100.00
2022-11-29T03:31:52.571Z,100.00
2022-11-29T03:34:29.864Z,100.00
2022-11-29T03:37:06.107Z,100.00
2022-11-29T03:39:41.347Z,100.00
2022-11-29T03:42:13.119Z,100.00
2022-11-29T03:44:46.654Z,100.00
2022-11-29T03:47:17.924Z,100.00
2022-11-29T03:49:49.246Z,100.00
2022-11-29T03:52:21.288Z,100.00
2022-11-29T03:55:00.419Z,100.00
2022-11-29T03:57:34.180Z,100.00
2022-11-29T04:00:05.441Z,100.00
2022-11-29T04:03:11.200Z,100.00
2022-11-29T04:05:55.749Z,100.00
2022-11-29T04:08:59.678Z,100.00
2022-11-29T04:11:50.660Z,100.00
2022-11-29T04:14:31.107Z,100.00
2022-11-29T04:17:17.308Z,100.00
2022-11-29T04:20:05.304Z,100.00
2022-11-29T04:22:54.856Z,100.00
2022-11-29T04:25:34.421Z,100.00
2022-11-29T04:28:31.917Z,100.00
2022-11-29T04:31:09.357Z,100.00
2022-11-29T04:34:03.268Z,100.00
2022-11-29T04:36:48.712Z,100.00
2022-11-29T04:39:45.539Z,100.00
2022-11-29T04:42:35.976Z,100.00
2022-11-29T04:45:35.199Z,100.00
2022-11-29T04:48:21.032Z,100.00
2022-11-29T04:50:57.860Z,100.00
2022-11-29T04:53:34.868Z,100.00
2022-11-29T04:56:12.443Z,100.00
2022-11-29T04:58:44.528Z,100.00
2022-11-29T05:01:21.596Z,100.00
2022-11-29T05:03:57.236Z,100.00
2022-11-29T05:06:29.065Z,100.00
2022-11-29T05:09:07.074Z,100.00
2022-11-29T05:11:49.977Z,100.00
2022-11-29T05:14:25.112Z,100.00
2022-11-29T05:17:09.375Z,100.00
2022-11-29T05:19:56.200Z,100.00
2022-11-29T05:22:32.822Z,100.00
2022-11-29T05:25:18.868Z,100.00
2022-11-29T05:27:48.652Z,100.00
2022-11-29T05:30:17.935Z,100.00
2022-11-29T05:32:56.002Z,100.00
2022-11-29T05:35:51.581Z,100.00
2022-11-29T05:38:38.344Z,100.00
2022-11-29T05:41:20.173Z,100.00
2022-11-29T05:43:57.925Z,100.00
2022-11-29T05:46:30.839Z,100.00
2022-11-29T05:49:10.276Z,100.00
2022-11-29T05:51:45.713Z,100.00
2022-11-29T05:54:24.927Z,100.00
2022-11-29T05:57:05.123Z,100.00
2022-11-29T05:59:34.206Z,100.00
2022-11-29T06:02:09.728Z,100.00
2022-11-29T06:04:50.941Z,100.00
2022-11-29T06:07:22.911Z,100.00
2022-11-29T06:10:00.540Z,100.00
2022-11-29T06:12:28.701Z,100.00
2022-11-29T06:15:39.980Z,100.00
2022-11-29T06:18:27.214Z,100.00
2022-11-29T06:21:10.838Z,100.00
2022-11-29T06:23:54.639Z,100.00
2022-11-29T06:26:47.637Z,100.00
2022-11-29T06:29:23.754Z,100.00
2022-11-29T06:31:58.566Z,100.00
2022-11-29T06:34:33.001Z,100.00
2022-11-29T06:37:05.497Z,100.00
2022-11-29T06:39:32.689Z,100.00
2022-11-29T06:41:59.177Z,100.00
2022-11-29T06:44:26.348Z,100.00
2022-11-29T06:47:00.949Z,100.00
2022-11-29T06:49:30.018Z,100.00
2022-11-29T06:52:19.273Z,100.00
2022-11-29T06:54:58.256Z,100.00
2022-11-29T06:57:34.172Z,100.00
2022-11-29T07:00:06.096Z,100.00
2022-11-29T07:02:44.335Z,100.00
2022-11-29T07:05:19.971Z,100.00
2022-11-29T07:07:48.977Z,100.00
2022-11-29T07:10:17.837Z,100.00
2022-11-29T07:12:45.872Z,100.00
2022-11-29T07:15:15.218Z,100.00
2022-11-29T07:17:53.767Z,100.00
2022-11-29T07:20:26.433Z,100.00
2022-11-29T07:23:09.357Z,100.00
2022-11-29T07:25:46.989Z,100.00
2022-11-29T07:28:27.148Z,100.00
2022-11-29T07:31:05.419Z,100.00
2022-11-29T07:33:43.270Z,100.00
2022-11-29T07:36:18.148Z,100.00
2022-11-29T07:38:57.028Z,100.00
2022-11-29T07:41:32.577Z,100.00
2022-11-29T07:44:08.444Z,100.00
2022-11-29T07:46:35.008Z,100.00
2022-11-29T07:49:01.516Z,100.00
2022-11-29T07:51:28.146Z,100.00
2022-11-29T07:53:56.036Z,100.00
2022-11-29T07:56:22.764Z,100.00
2022-11-29T07:58:49.364Z,100.00
2022-11-29T08:01:16.009Z,100.00
2022-11-29T08:03:42.539Z,100.00
2022-11-29T08:06:09.736Z,100.00
2022-11-29T08:08:40.704Z,100.00
2022-11-29T08:11:12.751Z,100.00
2022-11-29T08:13:39.341Z,100.00
2022-11-29T08:16:06.653Z,100.00
2022-11-29T08:18:33.256Z,100.00
2022-11-29T08:21:05.553Z,100.00
2022-11-29T08:23:32.087Z,100.00
2022-11-29T08:25:59.804Z,100.00
2022-11-29T08:28:27.761Z,100.00
2022-11-29T08:31:01.086Z,100.00
2022-11-29T08:33:27.786Z,100.00
2022-11-29T08:35:54.302Z,100.00
2022-11-29T08:38:20.897Z,100.00
2022-11-29T08:40:47.626Z,100.00
2022-11-29T08:43:14.255Z,100.00
2022-11-29T08:45:42.162Z,100.00
2022-11-29T08:48:08.749Z,100.00
2022-11-29T08:50:35.255Z,100.00
2022-11-29T08:53:01.898Z,100.00
2022-11-29T08:55:32.665Z,100.00
2022-11-29T08:58:04.381Z,100.00
2022-11-29T09:00:31.632Z,100.00
2022-11-29T09:03:01.100Z,100.00
2022-11-29T09:05:27.707Z,100.00
2022-11-29T09:07:54.254Z,100.00
2022-11-29T09:10:20.861Z,100.00
2022-11-29T09:12:47.374Z,100.00
2022-11-29T09:15:13.901Z,100.00
2022-11-29T09:17:40.375Z,100.00
2022-11-29T09:20:09.285Z,100.00
2022-11-29T09:22:35.786Z,100.00
2022-11-29T09:25:02.489Z,100.00
2022-11-29T09:27:28.998Z,100.00
2022-11-29T09:29:55.608Z,100.00
2022-11-29T09:32:22.106Z,100.00
2022-11-29T09:34:48.795Z,100.00
2022-11-29T09:37:16.632Z,100.00
2022-11-29T09:39:43.220Z,100.00
2022-11-29T09:42:23.877Z,99.68
2022-11-29T09:44:58.440Z,99.32
2022-11-29T09:47:36.829Z,98.72
2022-11-29T09:50:19.396Z,98.83
2022-11-29T09:52:54.069Z,98.80
2022-11-29T09:55:38.889Z,98.95
2022-11-29T09:58:10.396Z,98.79
2022-11-29T10:00:45.213Z,99.05
2022-11-29T10:03:17.403Z,98.58
2022-11-29T10:05:47.636Z,98.87
2022-11-29T10:08:21.756Z,99.31
2022-11-29T10:10:50.689Z,98.82
2022-11-29T10:13:22.430Z,98.60
2022-11-29T10:15:52.009Z,98.62
2022-11-29T10:18:23.154Z,98.69
2022-11-29T10:20:52.234Z,98.34
2022-11-29T10:23:24.082Z,97.87
2022-11-29T10:25:53.324Z,97.99
2022-11-29T10:28:22.150Z,97.67
2022-11-29T10:30:49.237Z,97.84
2022-11-29T10:33:19.324Z,97.15
2022-11-29T10:35:47.158Z,95.52
2022-11-29T10:38:30.197Z,95.79
2022-11-29T10:41:05.667Z,95.45
2022-11-29T10:43:32.314Z,95.39
2022-11-29T10:45:59.123Z,95.44
2022-11-29T10:48:28.322Z,94.45
2022-11-29T10:50:54.889Z,94.10
2022-11-29T10:53:25.384Z,94.32
2022-11-29T10:55:58.957Z,94.45
2022-11-29T10:58:28.994Z,94.31
2022-11-29T11:00:58.184Z,93.37
2022-11-29T11:03:33.437Z,93.14
2022-11-29T11:06:04.082Z,92.43
2022-11-29T11:08:32.530Z,92.25
2022-11-29T11:11:01.760Z,91.21
2022-11-29T11:13:32.416Z,90.95
2022-11-29T11:16:14.347Z,91.06
2022-11-29T11:18:41.103Z,89.86
2022-11-29T11:21:10.497Z,90.83
2022-11-29T11:23:45.790Z,89.24
2022-11-29T11:26:14.473Z,89.12
2022-11-29T11:28:49.086Z,88.51
2022-11-29T11:31:25.086Z,88.87
2022-11-29T11:33:51.776Z,89.13
2022-11-29T11:36:23.736Z,88.63
2022-11-29T11:38:52.035Z,89.07
2022-11-29T11:41:22.629Z,88.45
2022-11-29T11:43:57.256Z,89.45
2022-11-29T11:46:44.123Z,89.07
2022-11-29T11:49:12.693Z,89.83
2022-11-29T11:51:42.290Z,88.69
2022-11-29T11:54:14.528Z,88.90
2022-11-29T11:56:41.334Z,89.36
2022-11-29T11:59:17.894Z,88.69
2022-11-29T12:01:44.677Z,89.83
2022-11-29T12:04:15.544Z,89.70
2022-11-29T12:06:48.668Z,89.76
2022-11-29T12:09:24.989Z,88.82
2022-11-29T12:12:00.456Z,88.62
2022-11-29T12:14:36.689Z,88.49
2022-11-29T12:17:15.525Z,89.32
2022-11-29T12:19:59.034Z,89.55
2022-11-29T12:22:33.033Z,89.77
2022-11-29T12:25:05.275Z,90.48
2022-11-29T12:27:32.129Z,90.66
2022-11-29T12:30:00.209Z,91.41
2022-11-29T12:32:48.734Z,91.18
2022-11-29T12:35:49.382Z,91.69
2022-11-29T12:38:33.131Z,91.49
2022-11-29T12:41:11.502Z,91.67
2022-11-29T12:43:52.586Z,91.52
2022-11-29T12:46:24.293Z,91.65
2022-11-29T12:48:56.854Z,91.96
2022-11-29T12:51:31.902Z,91.63
2022-11-29T12:54:14.670Z,91.58
2022-11-29T12:56:48.475Z,91.65
2022-11-29T12:59:25.368Z,91.55
2022-11-29T13:02:13.916Z,91.22
2022-11-29T13:04:46.098Z,91.23
2022-11-29T13:07:22.602Z,91.12
2022-11-29T13:10:02.832Z,91.57
2022-11-29T13:12:36.504Z,91.08
2022-11-29T13:15:06.823Z,91.02
2022-11-29T13:17:42.443Z,91.18
2022-11-29T13:20:30.684Z,90.53
2022-11-29T13:23:04.978Z,90.82
2022-11-29T13:25:36.915Z,91.09
2022-11-29T13:28:07.132Z,91.15
2022-11-29T13:30:34.861Z,91.32
2022-11-29T13:33:12.040Z,91.42
2022-11-29T13:35:45.801Z,91.19
2022-11-29T13:38:19.460Z,91.11
2022-11-29T13:40:56.610Z,91.18
2022-11-29T13:43:30.750Z,91.37
2022-11-29T13:46:06.424Z,91.22
2022-11-29T13:48:45.669Z,91.33
2022-11-29T13:51:30.509Z,90.80
2022-11-29T13:53:59.455Z,90.91
2022-11-29T13:56:32.856Z,90.26
2022-11-29T13:59:00.844Z,90.72
2022-11-29T14:01:28.422Z,89.96
2022-11-29T14:04:06.126Z,89.59
2022-11-29T14:06:34.807Z,89.31
2022-11-29T14:09:23.829Z,88.68
2022-11-29T14:11:58.229Z,89.29
2022-11-29T14:14:28.911Z,88.73
2022-11-29T14:16:59.329Z,89.67
2022-11-29T14:19:33.520Z,89.72
2022-11-29T14:22:17.290Z,89.42
2022-11-29T14:24:56.668Z,89.77
2022-11-29T14:27:46.304Z,89.89
2022-11-29T14:30:47.200Z,89.30
2022-11-29T14:33:58.385Z,90.45
2022-11-29T14:36:43.484Z,90.39
2022-11-29T14:39:31.031Z,90.81
2022-11-29T14:42:09.597Z,90.94
2022-11-29T14:44:44.251Z,91.02
2022-11-29T14:47:20.310Z,91.19
2022-11-29T14:49:47.069Z,91.06
2022-11-29T14:52:26.099Z,91.12
2022-11-29T14:54:57.284Z,91.51
2022-11-29T14:57:53.393Z,91.52
2022-11-29T15:00:21.606Z,91.78
2022-11-29T15:02:50.806Z,91.78
2022-11-29T15:05:20.502Z,91.83
2022-11-29T15:07:54.637Z,91.42
2022-11-29T15:10:25.450Z,91.63
2022-11-29T15:12:53.503Z,91.83
2022-11-29T15:15:36.389Z,91.64
2022-11-29T15:18:16.399Z,91.75
2022-11-29T15:21:07.285Z,91.89
2022-11-29T15:23:42.274Z,91.84
2022-11-29T15:26:17.554Z,91.80
2022-11-29T15:28:44.625Z,92.16
2022-11-29T15:31:14.721Z,92.16
2022-11-29T15:33:43.691Z,91.87
2022-11-29T15:36:15.967Z,92.06
2022-11-29T15:38:45.965Z,92.22
2022-11-29T15:41:19.651Z,92.06
2022-11-29T15:43:51.025Z,92.02
2022-11-29T15:46:24.357Z,92.34
2022-11-29T15:48:50.919Z,92.53
2022-11-29T15:51:24.682Z,92.79
2022-11-29T15:54:12.115Z,92.98
2022-11-29T15:56:45.097Z,93.05
2022-11-29T15:59:18.524Z,93.38
2022-11-29T16:01:48.106Z,93.34
2022-11-29T16:04:18.563Z,93.59
2022-11-29T16:06:46.958Z,93.54
2022-11-29T16:09:17.452Z,93.50
2022-11-29T16:11:45.184Z,93.30
2022-11-29T16:14:18.762Z,93.52
2022-11-29T16:16:47.677Z,93.89
2022-11-29T16:19:30.137Z,93.79
2022-11-29T16:22:21.910Z,93.37
2022-11-29T16:25:02.512Z,93.23
2022-11-29T16:27:31.909Z,93.21
2022-11-29T16:29:58.616Z,93.68
2022-11-29T16:32:28.867Z,94.02
2022-11-29T16:34:57.007Z,94.16
2022-11-29T16:37:25.669Z,94.42
2022-11-29T16:39:59.315Z,94.64
2022-11-29T16:42:27.438Z,94.62
2022-11-29T16:45:31.227Z,94.79
2022-11-29T16:47:57.923Z,94.90
2022-11-29T16:50:25.653Z,95.00
2022-11-29T16:52:56.552Z,95.50
2022-11-29T16:55:24.881Z,95.28
2022-11-29T16:57:51.418Z,95.72
2022-11-29T17:00:30.249Z,95.14
2022-11-29T17:02:57.023Z,95.18
2022-11-29T17:05:23.712Z,95.67
2022-11-29T17:07:53.340Z,95.80
2022-11-29T17:10:23.707Z,96.07
2022-11-29T17:12:51.646Z,96.19
2022-11-29T17:15:18.248Z,97.04
2022-11-29T17:17:44.890Z,97.34
2022-11-29T17:20:12.468Z,97.61
2022-11-29T17:22:38.977Z,97.74
2022-11-29T17:25:06.169Z,97.62
2022-11-29T17:27:32.742Z,97.81
2022-11-29T17:30:00.621Z,98.17
2022-11-29T17:32:27.332Z,98.12
2022-11-29T17:34:53.943Z,98.05
2022-11-29T17:37:20.463Z,98.00
2022-11-29T17:39:47.190Z,97.78
2022-11-29T17:42:13.837Z,97.47
2022-11-29T17:44:40.335Z,97.61
2022-11-29T17:47:08.214Z,97.33
2022-11-29T17:49:34.857Z,97.28
2022-11-29T17:52:01.450Z,97.77
2022-11-29T17:54:27.992Z,97.80
2022-11-29T17:56:55.048Z,97.85
2022-11-29T17:59:21.568Z,97.24
2022-11-29T18:01:48.183Z,96.86
2022-11-29T18:04:16.177Z,97.26
2022-11-29T18:06:42.693Z,97.03
2022-11-29T18:09:10.520Z,97.23
2022-11-29T18:11:47.104Z,97.11
2022-11-29T18:14:16.222Z,96.85
2022-11-29T18:16:43.112Z,96.87
2022-11-29T18:19:13.220Z,96.40
2022-11-29T18:21:41.318Z,96.84
2022-11-29T18:24:08.986Z,97.26
2022-11-29T18:26:36.527Z,97.10
2022-11-29T18:29:03.733Z,98.02
2022-11-29T18:31:32.370Z,97.89
2022-11-29T18:34:00.395Z,97.85
2022-11-29T18:36:28.672Z,97.51
2022-11-29T18:38:58.215Z,97.79
2022-11-29T18:41:25.383Z,98.25
2022-11-29T18:43:56.946Z,98.04
2022-11-29T18:46:23.764Z,98.66
2022-11-29T18:48:50.338Z,99.20
2022-11-29T18:51:18.708Z,98.98
2022-11-29T18:53:45.982Z,99.59
2022-11-29T18:56:16.314Z,99.68
2022-11-29T18:58:43.766Z,100.00
2022-11-29T19:01:12.628Z,100.00
2022-11-29T19:03:41.251Z,100.00
2022-11-29T19:06:10.043Z,100.00
2022-11-29T19:08:37.797Z,100.00
2022-11-29T19:11:05.228Z,100.00
2022-11-29T19:13:33.774Z,99.78
2022-11-29T19:16:01.369Z,99.95
2022-11-29T19:18:28.356Z,100.00
2022-11-29T19:21:03.605Z,99.75
2022-11-29T19:23:30.287Z,99.68
2022-11-29T19:26:01.754Z,100.00
2022-11-29T19:28:28.397Z,100.00
2022-11-29T19:30:56.471Z,100.00
2022-11-29T19:33:23.152Z,100.00
2022-11-29T19:35:49.721Z,100.00
2022-11-29T19:38:16.521Z,100.00
2022-11-29T19:40:43.375Z,100.00
2022-11-29T19:43:10.015Z,100.00
2022-11-29T19:45:38.734Z,100.00
2022-11-29T19:48:06.891Z,100.00
2022-11-29T19:50:33.427Z,100.00
2022-11-29T19:53:00.022Z,100.00
2022-11-29T19:55:26.536Z,100.00
2022-11-29T19:57:55.352Z,100.00
2022-11-29T20:00:22.371Z,100.00
2022-11-29T20:02:49.013Z,100.00
2022-11-29T20:05:17.164Z,100.00
2022-11-29T20:07:43.792Z,100.00
2022-11-29T20:10:11.152Z,100.00
2022-11-29T20:12:37.780Z,100.00
2022-11-29T20:15:05.320Z,100.00
2022-11-29T20:17:31.892Z,100.00
2022-11-29T20:19:58.446Z,100.00
2022-11-29T20:22:26.420Z,100.00
2022-11-29T20:24:52.951Z,100.00
2022-11-29T20:27:19.558Z,100.00
2022-11-29T20:29:46.343Z,100.00
2022-11-29T20:32:13.194Z,100.00
2022-11-29T20:34:40.771Z,100.00
2022-11-29T20:37:29.876Z,100.00
2022-11-29T20:39:59.950Z,100.00
2022-11-29T20:42:46.504Z,100.00
2022-11-29T20:45:15.098Z,100.00
2022-11-29T20:47:49.473Z,100.00
2022-11-29T20:50:21.736Z,100.00
2022-11-29T20:53:04.951Z,100.00
2022-11-29T20:55:31.757Z,100.00
2022-11-29T20:57:58.277Z,100.00
2022-11-29T21:00:24.949Z,100.00
2022-11-29T21:02:51.505Z,100.00
2022-11-29T21:05:18.683Z,100.00
2022-11-29T21:07:45.281Z,100.00
2022-11-29T21:10:14.045Z,100.00
2022-11-29T21:12:41.262Z,100.00
2022-11-29T21:15:09.931Z,100.00
2022-11-29T21:17:37.075Z,100.00
2022-11-29T21:20:04.674Z,100.00
2022-11-29T21:22:40.817Z,100.00
2022-11-29T21:25:15.368Z,100.00
2022-11-29T21:27:42.421Z,100.00
2022-11-29T21:30:17.463Z,100.00
2022-11-29T21:32:44.783Z,100.00
2022-11-29T21:35:11.440Z,100.00
2022-11-29T21:37:38.305Z,100.00
2022-11-29T21:40:06.302Z,100.00
2022-11-29T21:42:34.260Z,100.00
2022-11-29T21:45:00.766Z,100.00
2022-11-29T21:47:27.371Z,100.00
2022-11-29T21:49:54.684Z,100.00
2022-11-29T21:52:22.982Z,100.00
2022-11-29T21:54:49.944Z,100.00
2022-11-29T21:57:16.694Z,100.00
2022-11-29T21:59:44.725Z,100.00
2022-11-29T22:02:11.446Z,100.00
2022-11-29T22:04:38.068Z,100.00
2022-11-29T22:07:04.689Z,100.00
2022-11-29T22:09:31.204Z,100.00
2022-11-29T22:11:57.802Z,100.00
2022-11-29T22:14:24.439Z,100.00
2022-11-29T22:16:54.080Z,100.00
2022-11-29T22:19:23.000Z,100.00
2022-11-29T22:21:51.401Z,100.00
2022-11-29T22:24:20.563Z,100.00
2022-11-29T22:26:47.602Z,100.00
2022-11-29T22:29:14.791Z,100.00
2022-11-29T22:31:42.222Z,100.00
2022-11-29T22:34:11.109Z,100.00
2022-11-29T22:36:38.385Z,100.00
2022-11-29T22:39:06.017Z,100.00
2022-11-29T22:41:33.653Z,100.00
2022-11-29T22:44:00.315Z,100.00
2022-11-29T22:46:28.047Z,100.00
2022-11-29T22:48:56.596Z,100.00
2022-11-29T22:51:26.685Z,100.00
2022-11-29T22:53:55.017Z,100.00
2022-11-29T22:56:22.526Z,100.00
2022-11-29T22:58:49.076Z,100.00
2022-11-29T23:01:17.519Z,100.00
2022-11-29T23:03:46.206Z,100.00
2022-11-29T23:06:14.280Z,100.00
2022-11-29T23:08:43.582Z,100.00
2022-11-29T23:11:12.010Z,100.00
2022-11-29T23:13:41.399Z,100.00
2022-11-29T23:16:09.912Z,100.00
2022-11-29T23:18:37.005Z,100.00
2022-11-29T23:21:06.240Z,100.00
2022-11-29T23:23:32.855Z,100.00
2022-11-29T23:26:01.398Z,100.00
2022-11-29T23:28:28.775Z,100.00
2022-11-29T23:30:55.604Z,100.00
2022-11-29T23:33:22.813Z,100.00
2022-11-29T23:35:49.610Z,100.00
2022-11-29T23:38:17.374Z,100.00
2022-11-29T23:40:44.276Z,100.00
2022-11-29T23:43:12.132Z,100.00
2022-11-29T23:45:39.238Z,100.00
2022-11-29T23:48:06.074Z,100.00
2022-11-29T23:50:32.633Z,100.00
2022-11-29T23:52:59.330Z,100.00
2022-11-29T23:55:26.274Z,100.00
2022-11-29T23:57:52.845Z,100.00
